createdAt,value
2018-07-02T00:01:27.383Z,14.45
2018-07-02T00:03:56.091Z,14.46
2018-07-02T00:06:44.813Z,14.50
2018-07-02T00:09:13.600Z,14.43
2018-07-02T00:11:42.259Z,14.44
2018-07-02T00:14:10.962Z,14.53
2018-07-02T00:16:39.690Z,14.54
2018-07-02T00:19:08.342Z,14.61
2018-07-02T00:21:37.069Z,14.50
2018-07-02T00:24:05.790Z,14.46
2018-07-02T00:26:34.551Z,14.44
2018-07-02T00:29:03.227Z,14.38
2018-07-02T00:31:31.905Z,14.39
2018-07-02T00:34:00.878Z,14.25
2018-07-02T00:36:29.568Z,14.29
2018-07-02T00:38:58.310Z,14.15
2018-07-02T00:41:27.098Z,14.08
2018-07-02T00:43:55.783Z,14.06
2018-07-02T00:46:24.568Z,14.09
2018-07-02T00:48:53.222Z,14.06
2018-07-02T00:51:22.364Z,14.03
2018-07-02T00:53:51.011Z,14.03
2018-07-02T00:56:19.768Z,14.00
2018-07-02T00:58:48.606Z,14.01
2018-07-02T01:01:17.880Z,14.08
2018-07-02T01:03:46.614Z,14.18
2018-07-02T01:06:15.287Z,14.27
2018-07-02T01:08:44.005Z,14.43
2018-07-02T01:11:12.753Z,14.50
2018-07-02T01:13:41.420Z,14.45
2018-07-02T01:16:10.208Z,14.36
2018-07-02T01:18:38.886Z,14.18
2018-07-02T01:21:07.684Z,14.13
2018-07-02T01:23:36.331Z,14.23
2018-07-02T01:26:05.012Z,14.37
2018-07-02T01:28:33.710Z,14.34
2018-07-02T01:31:02.360Z,14.27
2018-07-02T01:33:31.288Z,14.25
2018-07-02T01:36:00.141Z,14.24
2018-07-02T01:38:28.906Z,14.35
2018-07-02T01:40:57.616Z,14.43
2018-07-02T01:43:26.336Z,14.38
2018-07-02T01:45:55.058Z,14.47
2018-07-02T01:48:23.738Z,14.64
2018-07-02T01:50:52.428Z,14.70
2018-07-02T01:53:21.497Z,14.79
2018-07-02T01:55:50.479Z,14.83
2018-07-02T01:58:19.209Z,14.88
2018-07-02T02:00:47.934Z,14.91
2018-07-02T02:03:16.627Z,14.92
2018-07-02T02:05:45.327Z,14.97
2018-07-02T02:08:14.047Z,15.04
2018-07-02T02:10:42.787Z,15.06
2018-07-02T02:13:11.492Z,14.96
2018-07-02T02:15:40.164Z,14.94
2018-07-02T02:18:09.009Z,14.92
2018-07-02T02:20:37.653Z,14.99
2018-07-02T02:23:06.303Z,15.09
2018-07-02T02:25:35.026Z,15.11
2018-07-02T02:28:03.715Z,15.20
2018-07-02T02:30:32.443Z,15.24
2018-07-02T02:33:01.162Z,15.23
2018-07-02T02:35:29.874Z,15.21
2018-07-02T02:37:58.559Z,15.18
2018-07-02T02:40:27.233Z,15.14
2018-07-02T02:42:55.915Z,14.98
2018-07-02T02:45:24.602Z,14.93
2018-07-02T02:47:53.287Z,14.99
2018-07-02T02:50:21.986Z,14.98
2018-07-02T02:52:50.659Z,15.00
2018-07-02T02:55:19.354Z,15.00
2018-07-02T02:57:47.980Z,15.00
2018-07-02T03:00:16.727Z,15.03
2018-07-02T03:02:45.380Z,14.98
2018-07-02T03:05:14.136Z,14.98
2018-07-02T03:07:42.830Z,14.97
2018-07-02T03:10:11.541Z,14.94
2018-07-02T03:12:40.256Z,14.94
2018-07-02T03:15:08.975Z,14.91
2018-07-02T03:17:37.661Z,14.92
2018-07-02T03:20:06.444Z,14.97
2018-07-02T03:22:35.211Z,14.95
2018-07-02T03:25:04.041Z,15.01
2018-07-02T03:27:32.704Z,14.98
2018-07-02T03:30:01.450Z,15.04
2018-07-02T03:32:30.119Z,15.01
2018-07-02T03:34:58.825Z,15.01
2018-07-02T03:37:27.679Z,14.96
2018-07-02T03:39:56.319Z,14.94
2018-07-02T03:42:25.114Z,14.95
2018-07-02T03:44:53.802Z,14.93
2018-07-02T03:47:22.888Z,14.95
2018-07-02T03:49:51.592Z,14.97
2018-07-02T03:52:20.276Z,14.98
2018-07-02T03:54:48.997Z,15.02
2018-07-02T03:57:17.782Z,15.06
2018-07-02T03:59:46.446Z,15.07
2018-07-02T04:02:15.411Z,15.07
2018-07-02T04:04:44.075Z,15.08
2018-07-02T04:07:12.927Z,15.09
2018-07-02T04:09:41.645Z,15.05
2018-07-02T04:12:10.401Z,15.07
2018-07-02T04:14:39.027Z,15.12
2018-07-02T04:17:07.842Z,15.14
2018-07-02T04:19:36.526Z,15.13
2018-07-02T04:22:05.278Z,15.15
2018-07-02T04:24:33.941Z,15.20
2018-07-02T04:27:02.688Z,15.22
2018-07-02T04:29:31.504Z,15.25
2018-07-02T04:32:00.210Z,15.24
2018-07-02T04:34:29.061Z,15.29
2018-07-02T04:36:57.778Z,15.32
2018-07-02T04:39:26.456Z,15.40
2018-07-02T04:41:55.151Z,15.48
2018-07-02T04:44:24.428Z,15.46
2018-07-02T04:46:53.102Z,15.54
2018-07-02T04:49:21.901Z,15.63
2018-07-02T04:51:50.605Z,15.63
2018-07-02T04:54:19.391Z,15.64
2018-07-02T04:56:48.062Z,15.63
2018-07-02T04:59:16.711Z,15.69
2018-07-02T05:01:45.427Z,15.71
2018-07-02T05:04:14.084Z,15.73
2018-07-02T05:06:42.764Z,15.78
2018-07-02T05:09:11.389Z,15.83
2018-07-02T05:11:40.038Z,15.87
2018-07-02T05:14:09.429Z,15.90
2018-07-02T05:16:38.063Z,15.85
2018-07-02T08:09:35.016Z,20.27
2018-07-02T08:12:03.736Z,20.44
2018-07-02T08:14:33.072Z,20.50
2018-07-02T08:17:01.775Z,20.57
2018-07-02T08:19:30.478Z,20.32
2018-07-02T08:21:59.264Z,20.29
2018-07-02T08:24:28.001Z,19.80
2018-07-02T08:26:57.572Z,19.94
2018-07-02T08:29:26.303Z,20.10
2018-07-02T08:31:55.025Z,20.19
2018-07-02T08:34:23.914Z,20.31
2018-07-02T08:36:52.638Z,20.34
2018-07-02T08:39:21.308Z,20.45
2018-07-02T08:41:50.010Z,20.71
2018-07-02T08:44:18.740Z,20.93
2018-07-02T08:46:47.493Z,20.96
2018-07-02T08:49:16.268Z,21.08
2018-07-02T08:51:44.976Z,20.96
2018-07-02T08:54:14.015Z,20.99
2018-07-02T08:56:43.979Z,20.93
2018-07-02T08:59:13.201Z,21.07
2018-07-02T09:01:41.940Z,21.13
2018-07-02T09:04:10.624Z,21.14
2018-07-02T09:06:39.280Z,21.33
2018-07-02T09:09:10.509Z,21.48
2018-07-02T09:11:39.271Z,21.63
2018-07-02T09:14:07.910Z,21.84
2018-07-02T09:16:36.629Z,22.03
2018-07-02T09:19:05.432Z,22.14
2018-07-02T09:21:34.229Z,22.10
2018-07-02T09:24:02.939Z,22.12
2018-07-02T09:26:31.751Z,21.94
2018-07-02T09:29:00.411Z,21.88
2018-07-02T09:31:29.251Z,21.80
2018-07-02T09:33:58.088Z,22.07
2018-07-02T09:36:26.827Z,22.17
2018-07-02T09:38:55.553Z,22.26
2018-07-02T09:41:24.246Z,22.41
2018-07-02T09:43:53.134Z,22.53
2018-07-02T09:46:21.850Z,22.63
2018-07-02T09:48:50.651Z,22.73
2018-07-02T09:51:19.452Z,22.80
2018-07-02T09:53:48.213Z,22.79
2018-07-02T09:56:17.244Z,23.02
2018-07-02T09:58:46.580Z,23.11
2018-07-02T10:01:15.225Z,23.21
2018-07-02T10:03:43.992Z,23.17
2018-07-02T10:06:12.667Z,23.19
2018-07-02T10:08:41.354Z,23.09
2018-07-02T10:11:10.032Z,23.12
2018-07-02T10:13:38.793Z,23.33
2018-07-02T10:16:07.482Z,23.57
2018-07-02T10:18:36.170Z,23.59
2018-07-02T10:21:04.991Z,23.70
2018-07-02T10:23:37.334Z,23.75
2018-07-02T10:26:02.493Z,23.85
2018-07-02T10:28:31.240Z,23.48
2018-07-02T10:31:00.147Z,23.87
2018-07-02T10:33:28.866Z,23.87
2018-07-02T10:35:57.651Z,24.10
2018-07-02T10:38:26.363Z,24.42
2018-07-02T10:40:55.019Z,24.59
2018-07-02T10:43:23.803Z,24.90
2018-07-02T10:45:52.610Z,25.00
2018-07-02T10:48:21.306Z,25.08
2018-07-02T10:50:50.321Z,25.20
2018-07-02T10:53:19.022Z,25.21
2018-07-02T10:55:47.840Z,25.28
2018-07-02T10:58:16.465Z,25.46
2018-07-02T11:00:45.194Z,25.49
2018-07-02T11:03:13.915Z,25.56
2018-07-02T11:05:42.600Z,25.70
2018-07-02T11:08:11.259Z,26.18
2018-07-02T11:10:39.895Z,26.71
2018-07-02T11:13:11.098Z,27.04
2018-07-02T11:15:41.687Z,27.50
2018-07-02T11:18:10.431Z,27.69
2018-07-02T11:20:40.163Z,28.05
2018-07-02T11:23:09.104Z,28.32
2018-07-02T11:25:38.539Z,28.36
2018-07-02T11:28:08.135Z,28.89
2018-07-02T11:30:37.154Z,29.12
2018-07-02T11:33:06.119Z,29.58
2018-07-02T11:35:34.842Z,29.66
2018-07-02T11:38:03.646Z,29.97
2018-07-02T11:40:32.347Z,30.06
2018-07-02T11:43:01.028Z,29.64
2018-07-02T11:45:29.739Z,30.10
2018-07-02T11:47:58.403Z,30.21
2018-07-02T11:50:27.035Z,30.19
2018-07-02T11:52:55.801Z,30.02
2018-07-02T11:55:24.467Z,30.00
2018-07-02T11:57:53.179Z,30.68
2018-07-02T12:00:21.925Z,31.05
2018-07-02T12:02:50.649Z,30.88
2018-07-02T12:05:19.616Z,30.92
2018-07-02T12:07:48.325Z,30.93
2018-07-02T12:10:17.072Z,31.41
2018-07-02T12:12:45.774Z,31.28
2018-07-02T12:15:14.868Z,31.52
2018-07-02T12:17:43.600Z,31.52
2018-07-02T12:20:12.393Z,31.86
2018-07-02T12:22:41.152Z,31.97
2018-07-02T12:25:09.866Z,32.34
2018-07-02T12:27:38.546Z,32.36
2018-07-02T12:30:08.596Z,32.53
2018-07-02T12:32:37.558Z,32.76
2018-07-02T12:35:06.285Z,32.90
2018-07-02T12:37:35.948Z,32.50
2018-07-02T12:40:04.791Z,31.54
2018-07-02T12:42:33.518Z,30.63
2018-07-02T12:45:02.331Z,29.92
2018-07-02T12:47:31.043Z,29.12
2018-07-02T12:49:59.735Z,28.56
2018-07-02T12:52:28.521Z,28.08
2018-07-02T12:54:57.298Z,27.86
2018-07-02T12:57:26.435Z,27.55
2018-07-02T12:59:55.194Z,27.45
2018-07-02T13:02:24.015Z,27.37
2018-07-02T13:04:53.111Z,27.25
2018-07-02T13:07:21.825Z,27.03
2018-07-02T13:09:50.565Z,27.56
2018-07-02T13:12:19.361Z,28.46
2018-07-02T13:14:48.404Z,29.44
2018-07-02T13:17:17.143Z,29.82
2018-07-02T13:19:45.907Z,30.10
2018-07-02T13:22:14.723Z,29.91
2018-07-02T13:24:43.471Z,29.38
2018-07-02T13:27:12.853Z,28.11
2018-07-02T13:29:41.665Z,27.89
2018-07-02T13:32:10.445Z,29.02
2018-07-02T13:34:39.176Z,29.69
2018-07-02T13:37:07.983Z,30.36
2018-07-02T13:39:36.773Z,30.67
2018-07-02T13:42:05.508Z,29.50
2018-07-02T13:44:34.182Z,28.43
2018-07-02T13:47:02.980Z,27.58
2018-07-02T13:49:32.026Z,27.61
2018-07-02T13:52:00.754Z,27.52
2018-07-02T13:54:29.435Z,27.17
2018-07-02T13:56:58.229Z,27.83
2018-07-02T13:59:26.998Z,28.48
2018-07-02T14:01:55.804Z,28.75
2018-07-02T14:04:24.671Z,29.04
2018-07-02T14:06:54.815Z,29.12
2018-07-02T14:09:23.595Z,28.82
2018-07-02T14:11:52.964Z,29.22
2018-07-02T14:14:21.694Z,28.81
2018-07-02T14:16:50.509Z,29.48
2018-07-02T14:19:19.965Z,29.34
2018-07-02T14:21:48.727Z,30.30
2018-07-02T14:24:17.564Z,30.80
2018-07-02T14:26:46.254Z,30.82
2018-07-02T14:29:15.021Z,30.89
2018-07-02T14:31:43.710Z,31.10
2018-07-02T14:34:12.364Z,31.24
2018-07-02T14:36:41.046Z,31.51
2018-07-02T14:39:11.415Z,31.39
2018-07-02T14:41:40.137Z,31.40
2018-07-02T14:44:08.887Z,31.42
2018-07-02T14:46:37.652Z,31.71
2018-07-02T14:49:06.672Z,31.59
2018-07-02T14:51:35.386Z,31.82
2018-07-02T14:54:04.201Z,32.17
2018-07-02T14:56:32.947Z,32.60
2018-07-02T14:59:01.701Z,32.70
2018-07-02T15:01:30.536Z,32.91
2018-07-02T15:03:59.245Z,33.13
2018-07-02T15:06:27.965Z,33.22
2018-07-02T15:08:56.688Z,33.32
2018-07-02T15:11:25.443Z,32.93
2018-07-02T15:13:54.116Z,33.20
2018-07-02T15:16:22.832Z,33.08
2018-07-02T15:18:52.455Z,33.25
2018-07-02T15:21:21.122Z,33.28
2018-07-02T15:23:49.823Z,33.33
2018-07-02T15:26:18.478Z,32.94
2018-07-02T15:28:47.242Z,33.50
2018-07-02T15:31:16.256Z,33.30
2018-07-02T15:33:45.331Z,33.06
2018-07-02T15:36:14.108Z,32.83
2018-07-02T15:38:42.775Z,32.65
2018-07-02T15:41:11.567Z,32.54
2018-07-02T15:43:40.280Z,32.43
2018-07-02T15:46:09.261Z,32.55
2018-07-02T15:48:37.982Z,32.50
2018-07-02T15:51:06.828Z,32.56
2018-07-02T15:53:35.476Z,31.92
2018-07-02T15:56:04.247Z,32.10
2018-07-02T15:58:33.035Z,31.80
2018-07-02T16:01:02.282Z,31.82
2018-07-02T16:03:30.976Z,31.56
2018-07-02T16:05:59.733Z,31.00
2018-07-02T16:08:28.438Z,31.07
2018-07-02T16:10:57.078Z,31.04
2018-07-02T16:13:25.759Z,30.97
2018-07-02T16:15:54.484Z,30.84
2018-07-02T16:18:23.238Z,30.51
2018-07-02T16:20:52.161Z,30.65
2018-07-02T16:23:20.828Z,30.84
2018-07-02T16:25:49.517Z,30.89
2018-07-02T16:28:18.219Z,30.77
2018-07-02T16:30:47.258Z,30.54
2018-07-02T16:33:15.953Z,30.25
2018-07-02T16:35:44.775Z,29.57
2018-07-02T16:38:13.513Z,29.53
2018-07-02T16:40:42.190Z,29.92
2018-07-02T16:43:10.910Z,30.02
2018-07-02T16:45:39.703Z,30.36
2018-07-02T16:48:08.992Z,30.13
2018-07-02T16:50:37.810Z,30.04
2018-07-02T16:53:06.588Z,29.80
2018-07-02T16:55:35.334Z,29.91
2018-07-02T16:58:04.146Z,29.83
2018-07-02T17:00:32.910Z,29.73
2018-07-02T17:03:01.569Z,29.62
2018-07-02T17:05:30.244Z,29.38
2018-07-02T17:07:58.930Z,29.15
2018-07-02T17:10:27.726Z,28.89
2018-07-02T17:12:56.619Z,29.02
2018-07-02T17:15:25.325Z,28.78
2018-07-02T17:17:54.021Z,28.34
2018-07-02T17:20:23.126Z,28.49
2018-07-02T17:22:51.910Z,28.27
2018-07-02T17:25:21.495Z,28.24
2018-07-02T17:27:50.167Z,28.21
2018-07-02T17:30:18.996Z,28.08
2018-07-02T17:32:47.904Z,27.99
2018-07-02T17:35:16.639Z,27.73
2018-07-02T17:37:45.419Z,27.68
2018-07-02T17:40:14.500Z,27.61
2018-07-02T17:42:43.207Z,27.39
2018-07-02T17:45:12.444Z,27.02
2018-07-02T17:47:41.338Z,26.77
2018-07-02T17:50:10.043Z,26.49
2018-07-02T17:52:38.719Z,26.38
2018-07-02T17:55:07.605Z,26.22
2018-07-02T17:57:38.055Z,26.20
2018-07-02T18:00:07.766Z,26.13
2018-07-02T18:02:36.609Z,26.04
2018-07-02T18:05:05.726Z,25.82
2018-07-02T18:07:37.525Z,25.76
2018-07-02T18:10:06.525Z,25.82
2018-07-02T18:12:35.200Z,25.73
2018-07-02T18:15:04.237Z,25.57
2018-07-02T18:17:33.049Z,25.37
2018-07-02T18:20:02.584Z,25.13
2018-07-02T18:22:31.383Z,25.05
2018-07-02T18:25:00.060Z,25.04
2018-07-02T18:27:29.897Z,24.97
2018-07-02T18:29:58.609Z,24.81
2018-07-02T18:32:27.326Z,24.63
2018-07-02T18:34:56.007Z,24.55
2018-07-02T18:37:24.728Z,24.43
2018-07-02T18:39:53.482Z,24.37
2018-07-02T18:42:22.209Z,24.37
2018-07-02T18:44:50.927Z,24.43
2018-07-02T18:47:19.616Z,24.42
2018-07-02T18:49:48.322Z,24.36
2018-07-02T18:52:17.043Z,24.26
2018-07-02T18:54:46.377Z,24.15
2018-07-02T18:57:15.129Z,24.13
2018-07-02T18:59:43.808Z,24.04
2018-07-02T19:02:12.591Z,23.86
2018-07-02T19:04:41.401Z,23.75
2018-07-02T19:07:10.201Z,23.57
2018-07-02T19:09:38.894Z,23.60
2018-07-02T19:12:07.644Z,23.62
2018-07-02T19:14:36.422Z,23.60
2018-07-02T19:17:05.436Z,23.54
2018-07-02T19:19:34.138Z,23.57
2018-07-02T19:22:02.927Z,23.59
2018-07-02T19:24:31.716Z,23.56
2018-07-02T19:27:00.455Z,23.59
2018-07-02T19:30:58.536Z,23.57
2018-07-02T19:33:27.262Z,23.43
2018-07-02T19:35:55.949Z,23.46
2018-07-02T19:38:24.605Z,23.46
2018-07-02T19:40:53.342Z,23.40
2018-07-02T19:43:22.063Z,23.32
2018-07-02T19:45:51.053Z,23.20
2018-07-02T19:48:19.770Z,23.21
2018-07-02T19:50:48.531Z,23.22
2018-07-02T19:53:17.337Z,23.14
2018-07-02T19:55:46.244Z,23.18
2018-07-02T19:58:15.012Z,23.09
2018-07-02T20:00:46.279Z,23.15
2018-07-02T20:03:14.987Z,23.13
2018-07-02T20:05:43.755Z,23.17
2018-07-02T20:08:12.548Z,23.17
2018-07-02T20:10:41.361Z,23.13
2018-07-02T20:13:10.190Z,23.07
2018-07-02T20:15:38.880Z,23.00
2018-07-02T20:18:07.624Z,22.94
2018-07-02T20:20:36.935Z,22.98
2018-07-02T20:23:05.716Z,22.88
2018-07-02T20:25:34.439Z,22.95
2018-07-02T20:28:03.155Z,22.78
2018-07-02T20:30:31.925Z,22.73
2018-07-02T20:33:00.667Z,22.75
2018-07-02T20:35:29.759Z,22.79
2018-07-02T20:37:58.451Z,22.74
2018-07-02T20:40:27.094Z,22.68
2018-07-02T20:42:55.808Z,22.61
2018-07-02T20:45:24.475Z,22.62
2018-07-02T20:47:53.149Z,22.59
2018-07-02T20:50:21.840Z,22.59
2018-07-02T20:52:50.502Z,22.37
2018-07-02T20:55:19.192Z,22.34
2018-07-02T20:57:47.951Z,22.27
2018-07-02T21:00:16.633Z,22.25
2018-07-02T21:02:45.326Z,22.15
2018-07-02T21:05:14.185Z,22.17
2018-07-02T21:07:42.903Z,22.11
2018-07-02T21:10:11.629Z,21.98
2018-07-02T21:12:40.407Z,21.92
2018-07-02T21:15:09.171Z,21.85
2018-07-02T21:17:37.912Z,21.88
2018-07-02T21:20:06.719Z,21.87
2018-07-02T21:22:36.142Z,21.84
2018-07-02T21:25:04.928Z,21.70
2018-07-02T21:27:33.984Z,21.62
2018-07-02T21:30:04.647Z,21.53
2018-07-02T21:32:33.363Z,21.47
2018-07-02T21:35:02.116Z,21.37
2018-07-02T21:37:30.899Z,21.29
2018-07-02T21:39:59.649Z,21.30
2018-07-02T21:42:28.355Z,21.20
2018-07-02T21:44:57.050Z,21.11
2018-07-02T21:47:26.590Z,21.12
2018-07-02T21:49:55.762Z,21.01
2018-07-02T21:52:24.787Z,21.00
2018-07-02T21:54:53.723Z,21.06
2018-07-02T21:57:22.579Z,21.00
2018-07-02T21:59:51.624Z,21.06
2018-07-02T22:02:20.433Z,21.02
2018-07-02T22:04:49.249Z,20.85
2018-07-02T22:07:18.418Z,20.88
2018-07-02T22:09:47.187Z,20.84
2018-07-02T22:12:16.028Z,20.81
2018-07-02T22:14:44.695Z,20.82
2018-07-02T22:17:13.367Z,20.73
2018-07-02T22:19:42.173Z,20.79
2018-07-02T22:22:10.907Z,20.81
2018-07-02T22:24:39.630Z,20.79
2018-07-02T22:27:08.383Z,20.72
2018-07-02T22:29:37.204Z,20.76
2018-07-02T22:32:06.300Z,20.75
2018-07-02T22:34:35.073Z,20.76
2018-07-02T22:37:03.827Z,20.65
2018-07-02T22:39:32.646Z,20.69
2018-07-02T22:42:01.404Z,20.68
2018-07-02T22:44:30.074Z,20.63
2018-07-02T22:46:58.751Z,20.57
2018-07-02T22:49:27.402Z,20.61
2018-07-02T22:51:56.123Z,20.61
2018-07-02T22:54:24.845Z,20.57
2018-07-02T22:56:53.636Z,20.63
2018-07-02T22:59:22.353Z,20.63
2018-07-02T23:01:51.104Z,20.58
2018-07-02T23:04:19.792Z,20.60
2018-07-02T23:06:48.464Z,20.55
2018-07-02T23:09:17.220Z,20.54
2018-07-02T23:11:45.869Z,20.57
2018-07-02T23:14:14.506Z,20.49
2018-07-02T23:16:43.237Z,20.50
2018-07-02T23:19:18.215Z,20.40
2018-07-02T23:21:46.910Z,20.39
2018-07-02T23:24:15.571Z,20.27
2018-07-02T23:26:44.275Z,20.21
2018-07-02T23:29:12.990Z,20.19
2018-07-02T23:31:41.710Z,20.17
2018-07-02T23:34:10.591Z,20.18
2018-07-02T23:36:39.325Z,20.19
2018-07-02T23:39:11.104Z,20.18
2018-07-02T23:41:39.847Z,20.09
2018-07-02T23:44:08.514Z,20.12
2018-07-02T23:46:37.275Z,20.13
2018-07-02T23:49:06.068Z,20.13
2018-07-02T23:51:34.751Z,20.09
2018-07-02T23:54:03.458Z,20.14
2018-07-02T23:56:32.225Z,20.15
2018-07-02T23:59:00.935Z,20.18
